Time;durP1;ratioP1;P1;durP2;ratioP2;P2;SDS_P1;SDS_P2;PMS_P1;PMS_P2;Temp;Humidity;BMP_temperature;BMP_pressure;BME280_temperature;BME280_humidity;BME280_pressure;Samples;Min_cycle;Max_cycle;Signal;HPM_P1;HPM_P2
2023/01/17 00:00:00;;;;;;;2.2;2.2;;;;;;;3.5;100.0;98120;;;;
2023/01/17 00:01:05;;;;;;;2.2;2.2;;;;;;;3.4;100.0;98130;;;;
2023/01/17 00:02:01;;;;;;;2.2;2.2;;;;;;;3.4;100.0;98130;;;;
2023/01/17 00:03:00;;;;;;;2.2;2.2;;;;;;;3.4;100.0;98130;;;;
2023/01/17 00:10:03;;;;;;;2.2;2.2;;;;;;;3.6;100.0;98140;;;;
2023/01/17 00:11:00;;;;;;;2.2;2.2;;;;;;;3.6;100.0;98140;;;;
2023/01/17 00:12:01;;;;;;;2.2;2.2;;;;;;;3.4;100.0;98130;;;;
2023/01/17 00:13:02;;;;;;;2.2;2.2;;;;;;;3.4;100.0;98130;;;;
2023/01/17 00:14:00;;;;;;;2.2;2.2;;;;;;;3.4;100.0;98150;;;;
2023/01/17 00:15:01;;;;;;;2.2;2.2;;;;;;;3.4;100.0;98150;;;;
2023/01/17 00:16:00;;;;;;;2.8;2.7;;;;;;;3.2;100.0;98150;;;;
2023/01/17 00:17:00;;;;;;;2.8;2.7;;;;;;;3.2;100.0;98150;;;;
2023/01/17 00:18:00;;;;;;;2.8;2.7;;;;;;;3.1;100.0;98160;;;;
2023/01/17 00:26:01;;;;;;;2.8;2.7;;;;;;;3.0;100.0;98190;;;;
2023/01/17 01:34:00;;;;;;;2.9;2.8;;;;;;;1.6;100.0;98300;;;;
2023/01/17 01:35:00;;;;;;;2.9;2.8;;;;;;;1.6;100.0;98300;;;;
2023/01/17 01:36:00;;;;;;;2.9;2.8;;;;;;;1.6;100.0;98310;;;;
2023/01/17 01:37:00;;;;;;;2.9;2.8;;;;;;;1.6;100.0;98310;;;;
2023/01/17 01:38:00;;;;;;;2.9;2.8;;;;;;;1.7;100.0;98310;;;;
2023/01/17 01:39:00;;;;;;;2.9;2.8;;;;;;;1.7;100.0;98310;;;;
2023/01/17 01:40:00;;;;;;;2.9;2.8;;;;;;;1.7;100.0;98310;;;;
2023/01/17 01:41:00;;;;;;;2.9;2.8;;;;;;;1.7;100.0;98310;;;;
2023/01/17 01:42:00;;;;;;;2.9;2.8;;;;;;;1.6;100.0;98310;;;;
2023/01/17 01:43:04;;;;;;;2.9;2.8;;;;;;;1.6;100.0;98310;;;;
2023/01/17 01:44:01;;;;;;;2.9;2.8;;;;;;;1.6;100.0;98320;;;;
2023/01/17 01:45:02;;;;;;;2.9;2.8;;;;;;;1.6;100.0;98320;;;;
2023/01/17 01:46:00;;;;;;;2.9;2.8;;;;;;;1.6;100.0;98320;;;;
2023/01/17 01:47:01;;;;;;;2.9;2.8;;;;;;;1.6;100.0;98320;;;;
2023/01/17 01:48:04;;;;;;;2.9;2.8;;;;;;;1.6;100.0;98330;;;;
2023/01/17 01:49:04;;;;;;;2.9;2.8;;;;;;;1.6;100.0;98330;;;;
2023/01/17 01:50:02;;;;;;;2.9;2.8;;;;;;;1.6;100.0;98330;;;;
2023/01/17 01:51:03;;;;;;;2.9;2.8;;;;;;;1.6;100.0;98330;;;;
2023/01/17 01:52:02;;;;;;;2.9;2.8;;;;;;;1.6;100.0;98340;;;;
2023/01/17 01:53:01;;;;;;;2.9;2.8;;;;;;;1.6;100.0;98340;;;;
2023/01/17 01:54:05;;;;;;;2.9;2.8;;;;;;;1.6;100.0;98350;;;;
2023/01/17 01:55:04;;;;;;;2.9;2.8;;;;;;;1.6;100.0;98350;;;;
2023/01/17 01:56:02;;;;;;;2.7;2.6;;;;;;;1.6;100.0;98350;;;;
2023/01/17 01:57:02;;;;;;;2.7;2.6;;;;;;;1.6;100.0;98350;;;;
2023/01/17 01:58:03;;;;;;;2.7;2.6;;;;;;;1.6;100.0;98350;;;;
2023/01/17 01:59:02;;;;;;;2.7;2.6;;;;;;;1.6;100.0;98350;;;;
2023/01/17 02:00:04;;;;;;;2.7;2.6;;;;;;;1.8;100.0;98350;;;;
2023/01/17 02:01:01;;;;;;;2.7;2.6;;;;;;;1.8;100.0;98350;;;;
2023/01/17 02:02:01;;;;;;;2.7;2.6;;;;;;;1.6;100.0;98350;;;;
2023/01/17 02:03:04;;;;;;;2.7;2.6;;;;;;;1.6;100.0;98350;;;;
2023/01/17 02:04:01;;;;;;;2.7;2.6;;;;;;;1.6;100.0;98350;;;;
2023/01/17 02:05:04;;;;;;;2.7;2.6;;;;;;;1.7;100.0;98360;;;;
2023/01/17 02:06:06;;;;;;;2.7;2.6;;;;;;;1.7;100.0;98360;;;;
2023/01/17 02:07:06;;;;;;;2.7;2.6;;;;;;;1.7;100.0;98360;;;;
2023/01/17 02:08:02;;;;;;;2.7;2.6;;;;;;;1.7;100.0;98350;;;;
2023/01/17 02:09:03;;;;;;;2.7;2.6;;;;;;;1.7;100.0;98350;;;;
2023/01/17 02:10:01;;;;;;;2.7;2.6;;;;;;;1.8;100.0;98360;;;;
2023/01/17 02:11:00;;;;;;;2.7;2.6;;;;;;;1.8;100.0;98360;;;;
2023/01/17 02:12:01;;;;;;;2.7;2.6;;;;;;;1.8;100.0;98360;;;;
2023/01/17 02:13:01;;;;;;;2.7;2.6;;;;;;;1.8;100.0;98360;;;;
2023/01/17 02:14:00;;;;;;;2.7;2.6;;;;;;;1.7;100.0;98360;;;;
2023/01/17 02:15:01;;;;;;;3.0;2.9;;;;;;;1.7;100.0;98360;;;;
2023/01/17 02:16:06;;;;;;;3.0;2.9;;;;;;;1.8;100.0;98370;;;;
2023/01/17 02:17:10;;;;;;;3.0;2.9;;;;;;;1.8;100.0;98370;;;;
2023/01/17 02:18:10;;;;;;;3.0;2.9;;;;;;;1.8;100.0;98370;;;;
2023/01/17 02:19:03;;;;;;;3.0;2.9;;;;;;;1.8;100.0;98370;;;;
2023/01/17 02:20:00;;;;;;;3.0;2.9;;;;;;;1.8;100.0;98370;;;;
2023/01/17 02:21:09;;;;;;;3.0;2.9;;;;;;;1.8;100.0;98370;;;;
2023/01/17 02:22:10;;;;;;;3.0;2.9;;;;;;;1.8;100.0;98370;;;;
2023/01/17 02:23:10;;;;;;;3.0;2.9;;;;;;;1.9;100.0;98380;;;;
2023/01/17 02:24:01;;;;;;;3.0;2.9;;;;;;;1.9;100.0;98380;;;;
2023/01/17 02:25:10;;;;;;;3.0;2.9;;;;;;;1.8;100.0;98390;;;;
2023/01/17 02:26:03;;;;;;;3.0;2.9;;;;;;;1.8;100.0;98390;;;;
2023/01/17 02:27:06;;;;;;;3.0;2.9;;;;;;;1.9;100.0;98380;;;;
2023/01/17 02:28:02;;;;;;;3.0;2.9;;;;;;;1.9;100.0;98380;;;;
2023/01/17 02:29:10;;;;;;;3.0;2.9;;;;;;;1.8;100.0;98380;;;;
2023/01/17 02:30:10;;;;;;;3.0;2.9;;;;;;;1.8;100.0;98380;;;;
2023/01/17 02:31:04;;;;;;;3.0;2.9;;;;;;;1.8;100.0;98380;;;;
2023/01/17 02:32:07;;;;;;;3.0;2.9;;;;;;;1.8;100.0;98380;;;;
2023/01/17 02:33:10;;;;;;;3.0;2.9;;;;;;;1.8;100.0;98380;;;;
2023/01/17 02:34:10;;;;;;;3.0;2.9;;;;;;;1.8;100.0;98380;;;;
2023/01/17 02:35:04;;;;;;;2.9;2.8;;;;;;;1.8;100.0;98380;;;;
2023/01/17 02:36:05;;;;;;;2.9;2.8;;;;;;;1.8;100.0;98380;;;;
2023/01/17 02:37:04;;;;;;;2.9;2.8;;;;;;;1.8;100.0;98390;;;;
2023/01/17 02:38:05;;;;;;;2.9;2.8;;;;;;;1.8;100.0;98390;;;;
2023/01/17 02:39:03;;;;;;;2.9;2.8;;;;;;;1.8;100.0;98390;;;;
2023/01/17 02:40:07;;;;;;;2.9;2.8;;;;;;;1.8;100.0;98390;;;;
2023/01/17 02:41:05;;;;;;;2.9;2.8;;;;;;;1.9;100.0;98390;;;;
2023/01/17 02:42:03;;;;;;;2.9;2.8;;;;;;;1.9;100.0;98390;;;;
2023/01/17 02:43:04;;;;;;;2.9;2.8;;;;;;;1.9;100.0;98380;;;;
2023/01/17 02:44:00;;;;;;;2.9;2.8;;;;;;;1.9;100.0;98380;;;;
2023/01/17 02:45:01;;;;;;;2.9;2.8;;;;;;;1.9;100.0;98380;;;;
2023/01/17 02:46:00;;;;;;;2.9;2.8;;;;;;;1.8;100.0;98380;;;;
2023/01/17 02:47:00;;;;;;;2.9;2.8;;;;;;;1.8;100.0;98380;;;;
2023/01/17 02:48:00;;;;;;;2.9;2.8;;;;;;;1.8;100.0;98380;;;;
2023/01/17 02:49:01;;;;;;;2.9;2.8;;;;;;;1.8;100.0;98380;;;;
2023/01/17 02:50:04;;;;;;;2.9;2.8;;;;;;;1.8;100.0;98380;;;;
2023/01/17 02:51:07;;;;;;;2.9;2.8;;;;;;;1.8;100.0;98380;;;;
2023/01/17 02:52:00;;;;;;;2.9;2.8;;;;;;;1.8;100.0;98380;;;;
2023/01/17 02:53:01;;;;;;;2.9;2.8;;;;;;;1.8;100.0;98380;;;;
2023/01/17 02:54:10;;;;;;;2.9;2.8;;;;;;;1.8;100.0;98380;;;;
2023/01/17 02:55:10;;;;;;;3.0;2.9;;;;;;;1.8;100.0;98380;;;;
2023/01/17 02:56:06;;;;;;;3.0;2.9;;;;;;;1.8;100.0;98380;;;;
2023/01/17 02:57:10;;;;;;;3.0;2.9;;;;;;;1.8;100.0;98380;;;;
2023/01/17 02:58:00;;;;;;;3.0;2.9;;;;;;;1.8;100.0;98380;;;;
2023/01/17 02:59:10;;;;;;;3.0;2.9;;;;;;;1.8;100.0;98390;;;;
2023/01/17 03:00:12;;;;;;;3.0;2.9;;;;;;;1.8;100.0;98390;;;;
2023/01/17 03:01:01;;;;;;;3.0;2.9;;;;;;;1.8;100.0;98390;;;;
2023/01/17 03:02:01;;;;;;;3.0;2.9;;;;;;;1.6;100.0;98390;;;;
2023/01/17 03:03:10;;;;;;;3.0;2.9;;;;;;;1.7;100.0;98390;;;;
2023/01/17 03:04:07;;;;;;;3.0;2.9;;;;;;;1.7;100.0;98390;;;;
2023/01/17 03:05:04;;;;;;;3.0;2.9;;;;;;;1.6;100.0;98390;;;;
2023/01/17 03:06:10;;;;;;;3.0;2.9;;;;;;;1.6;100.0;98390;;;;
2023/01/17 03:07:03;;;;;;;3.0;2.9;;;;;;;1.6;100.0;98390;;;;
2023/01/17 03:08:01;;;;;;;3.0;2.9;;;;;;;1.7;100.0;98390;;;;
2023/01/17 03:09:01;;;;;;;3.0;2.9;;;;;;;1.7;100.0;98390;;;;
2023/01/17 03:10:02;;;;;;;3.0;2.9;;;;;;;1.6;100.0;98390;;;;
2023/01/17 03:11:00;;;;;;;3.0;2.9;;;;;;;1.6;100.0;98390;;;;
2023/01/17 03:12:02;;;;;;;3.0;2.9;;;;;;;1.7;100.0;98400;;;;
2023/01/17 03:13:02;;;;;;;3.0;2.9;;;;;;;1.7;100.0;98400;;;;
2023/01/17 03:14:00;;;;;;;3.0;2.9;;;;;;;1.6;100.0;98390;;;;
2023/01/17 03:15:00;;;;;;;2.8;2.7;;;;;;;1.6;100.0;98390;;;;
2023/01/17 03:16:02;;;;;;;2.8;2.7;;;;;;;1.6;100.0;98400;;;;
2023/01/17 03:17:00;;;;;;;2.8;2.7;;;;;;;1.6;100.0;98400;;;;
2023/01/17 03:18:02;;;;;;;2.8;2.7;;;;;;;1.5;100.0;98410;;;;
2023/01/17 03:19:00;;;;;;;2.8;2.7;;;;;;;1.5;100.0;98410;;;;
2023/01/17 03:20:00;;;;;;;2.8;2.7;;;;;;;1.5;100.0;98410;;;;
2023/01/17 03:21:00;;;;;;;2.8;2.7;;;;;;;1.5;100.0;98410;;;;
2023/01/17 03:22:00;;;;;;;2.8;2.7;;;;;;;1.4;100.0;98400;;;;
2023/01/17 03:23:00;;;;;;;2.8;2.7;;;;;;;1.4;100.0;98400;;;;
2023/01/17 03:24:01;;;;;;;2.8;2.7;;;;;;;1.5;100.0;98410;;;;
2023/01/17 03:25:00;;;;;;;2.8;2.7;;;;;;;1.5;100.0;98410;;;;
2023/01/17 03:26:00;;;;;;;2.8;2.7;;;;;;;1.4;100.0;98410;;;;
2023/01/17 03:27:00;;;;;;;2.8;2.7;;;;;;;1.4;100.0;98410;;;;
2023/01/17 03:28:00;;;;;;;2.8;2.7;;;;;;;1.4;100.0;98420;;;;
2023/01/17 03:29:00;;;;;;;2.8;2.7;;;;;;;1.4;100.0;98420;;;;
2023/01/17 03:30:00;;;;;;;2.8;2.7;;;;;;;1.4;100.0;98420;;;;
2023/01/17 03:31:00;;;;;;;2.8;2.7;;;;;;;1.4;100.0;98420;;;;
2023/01/17 03:32:00;;;;;;;2.8;2.7;;;;;;;1.3;100.0;98430;;;;
2023/01/17 03:33:00;;;;;;;2.8;2.7;;;;;;;1.3;100.0;98430;;;;
2023/01/17 03:34:00;;;;;;;2.8;2.7;;;;;;;1.3;100.0;98430;;;;
2023/01/17 03:35:00;;;;;;;2.8;2.7;;;;;;;1.3;100.0;98430;;;;
2023/01/17 03:36:00;;;;;;;2.8;2.7;;;;;;;1.4;100.0;98430;;;;
2023/01/17 03:37:00;;;;;;;2.8;2.7;;;;;;;1.4;100.0;98430;;;;
2023/01/17 03:38:00;;;;;;;2.8;2.7;;;;;;;1.3;100.0;98430;;;;
2023/01/17 03:39:01;;;;;;;2.8;2.7;;;;;;;1.3;100.0;98430;;;;
2023/01/17 03:40:00;;;;;;;2.8;2.7;;;;;;;1.3;100.0;98430;;;;
2023/01/17 03:41:00;;;;;;;2.8;2.7;;;;;;;1.3;100.0;98430;;;;
2023/01/17 03:42:00;;;;;;;2.8;2.7;;;;;;;1.3;100.0;98430;;;;
2023/01/17 03:43:00;;;;;;;2.8;2.7;;;;;;;1.3;100.0;98430;;;;
2023/01/17 03:44:00;;;;;;;2.8;2.7;;;;;;;1.2;100.0;98430;;;;
2023/01/17 03:45:00;;;;;;;2.8;2.7;;;;;;;1.2;100.0;98430;;;;
2023/01/17 03:46:01;;;;;;;2.8;2.7;;;;;;;1.1;100.0;98430;;;;
2023/01/17 03:47:00;;;;;;;2.8;2.7;;;;;;;1.1;100.0;98430;;;;
2023/01/17 03:48:00;;;;;;;2.8;2.7;;;;;;;1.1;100.0;98430;;;;
2023/01/17 03:49:00;;;;;;;2.8;2.7;;;;;;;1.1;100.0;98430;;;;
2023/01/17 03:50:00;;;;;;;2.8;2.7;;;;;;;1.1;100.0;98430;;;;
2023/01/17 03:51:00;;;;;;;2.8;2.7;;;;;;;1.1;100.0;98430;;;;
2023/01/17 03:52:00;;;;;;;2.8;2.7;;;;;;;1.2;100.0;98430;;;;
2023/01/17 03:53:00;;;;;;;2.8;2.7;;;;;;;1.2;100.0;98430;;;;
2023/01/17 03:54:00;;;;;;;2.8;2.7;;;;;;;1.1;100.0;98430;;;;
2023/01/17 03:55:01;;;;;;;3.1;3.0;;;;;;;1.1;100.0;98430;;;;
2023/01/17 03:56:00;;;;;;;3.1;3.0;;;;;;;1.0;100.0;98430;;;;
2023/01/17 03:57:00;;;;;;;3.1;3.0;;;;;;;1.0;100.0;98430;;;;
2023/01/17 03:58:00;;;;;;;3.1;3.0;;;;;;;1.1;100.0;98430;;;;
2023/01/17 03:59:00;;;;;;;3.1;3.0;;;;;;;1.1;100.0;98430;;;;
2023/01/17 04:00:00;;;;;;;3.1;3.0;;;;;;;1.1;100.0;98440;;;;
2023/01/17 04:01:00;;;;;;;3.1;3.0;;;;;;;1.1;100.0;98440;;;;
2023/01/17 04:02:00;;;;;;;3.1;3.0;;;;;;;1.1;100.0;98440;;;;
2023/01/17 04:03:00;;;;;;;3.1;3.0;;;;;;;1.1;100.0;98440;;;;
2023/01/17 04:04:00;;;;;;;3.1;3.0;;;;;;;1.1;100.0;98440;;;;
2023/01/17 04:05:00;;;;;;;3.1;3.0;;;;;;;1.1;100.0;98440;;;;
2023/01/17 04:06:00;;;;;;;3.1;3.0;;;;;;;1.0;100.0;98440;;;;
2023/01/17 04:07:00;;;;;;;3.1;3.0;;;;;;;1.0;100.0;98440;;;;
2023/01/17 04:08:00;;;;;;;3.1;3.0;;;;;;;1.0;100.0;98440;;;;
2023/01/17 04:09:00;;;;;;;3.1;3.0;;;;;;;1.0;100.0;98440;;;;
2023/01/17 04:10:00;;;;;;;3.1;3.0;;;;;;;1.1;100.0;98440;;;;
2023/01/17 04:11:00;;;;;;;3.1;3.0;;;;;;;1.1;100.0;98440;;;;
2023/01/17 04:12:01;;;;;;;3.1;3.0;;;;;;;1.0;100.0;98450;;;;
2023/01/17 04:13:00;;;;;;;3.1;3.0;;;;;;;1.0;100.0;98450;;;;
2023/01/17 04:14:00;;;;;;;3.1;3.0;;;;;;;1.1;100.0;98460;;;;
2023/01/17 04:15:00;;;;;;;3.3;3.2;;;;;;;1.1;100.0;98460;;;;
2023/01/17 04:16:00;;;;;;;3.3;3.2;;;;;;;1.0;100.0;98450;;;;
2023/01/17 04:17:01;;;;;;;3.3;3.2;;;;;;;1.0;100.0;98450;;;;
2023/01/17 04:18:00;;;;;;;3.3;3.2;;;;;;;1.0;100.0;98450;;;;
2023/01/17 04:19:00;;;;;;;3.3;3.2;;;;;;;1.0;100.0;98450;;;;
2023/01/17 04:20:00;;;;;;;3.3;3.2;;;;;;;1.0;100.0;98450;;;;
2023/01/17 04:21:00;;;;;;;3.3;3.2;;;;;;;1.0;100.0;98450;;;;
2023/01/17 04:22:00;;;;;;;3.3;3.2;;;;;;;1.0;100.0;98450;;;;
2023/01/17 04:23:00;;;;;;;3.3;3.2;;;;;;;1.0;100.0;98450;;;;
2023/01/17 04:24:00;;;;;;;3.3;3.2;;;;;;;1.0;100.0;98450;;;;
2023/01/17 04:25:00;;;;;;;3.3;3.2;;;;;;;1.0;100.0;98450;;;;
2023/01/17 04:26:02;;;;;;;3.3;3.2;;;;;;;1.0;100.0;98450;;;;
2023/01/17 04:27:00;;;;;;;3.3;3.2;;;;;;;1.0;100.0;98450;;;;
2023/01/17 04:28:02;;;;;;;3.3;3.2;;;;;;;1.0;100.0;98460;;;;
2023/01/17 04:29:00;;;;;;;3.3;3.2;;;;;;;1.0;100.0;98460;;;;
2023/01/17 04:30:00;;;;;;;3.3;3.2;;;;;;;1.1;100.0;98450;;;;
2023/01/17 04:31:00;;;;;;;3.3;3.2;;;;;;;1.1;100.0;98450;;;;
2023/01/17 04:32:00;;;;;;;3.3;3.2;;;;;;;1.0;100.0;98460;;;;
2023/01/17 04:33:00;;;;;;;3.3;3.2;;;;;;;1.0;100.0;98460;;;;
2023/01/17 04:34:00;;;;;;;3.3;3.2;;;;;;;1.0;100.0;98450;;;;
2023/01/17 04:35:00;;;;;;;3.3;3.2;;;;;;;1.0;100.0;98450;;;;
2023/01/17 04:36:00;;;;;;;3.3;3.2;;;;;;;1.0;100.0;98460;;;;
2023/01/17 04:37:00;;;;;;;3.3;3.2;;;;;;;1.0;100.0;98460;;;;
2023/01/17 04:38:00;;;;;;;3.3;3.2;;;;;;;1.0;100.0;98450;;;;
2023/01/17 04:39:00;;;;;;;3.3;3.2;;;;;;;1.0;100.0;98450;;;;
2023/01/17 04:40:00;;;;;;;3.3;3.2;;;;;;;1.0;100.0;98450;;;;
2023/01/17 04:41:00;;;;;;;3.3;3.2;;;;;;;1.0;100.0;98450;;;;
2023/01/17 04:42:01;;;;;;;3.3;3.2;;;;;;;0.9;100.0;98450;;;;
2023/01/17 04:43:00;;;;;;;3.3;3.2;;;;;;;0.9;100.0;98450;;;;
2023/01/17 04:44:00;;;;;;;3.3;3.2;;;;;;;0.9;100.0;98450;;;;
2023/01/17 04:45:00;;;;;;;3.3;3.2;;;;;;;0.9;100.0;98450;;;;
2023/01/17 04:46:00;;;;;;;3.3;3.2;;;;;;;1.0;100.0;98450;;;;
2023/01/17 04:47:01;;;;;;;3.3;3.2;;;;;;;1.0;100.0;98450;;;;
2023/01/17 04:48:03;;;;;;;3.3;3.2;;;;;;;0.9;100.0;98450;;;;
2023/01/17 04:49:00;;;;;;;3.3;3.2;;;;;;;0.9;100.0;98450;;;;
2023/01/17 04:50:00;;;;;;;3.3;3.2;;;;;;;0.9;100.0;98450;;;;
2023/01/17 04:51:01;;;;;;;3.3;3.2;;;;;;;0.9;100.0;98450;;;;
2023/01/17 04:52:00;;;;;;;3.3;3.2;;;;;;;1.0;100.0;98450;;;;
2023/01/17 04:53:00;;;;;;;3.3;3.2;;;;;;;1.0;100.0;98450;;;;
2023/01/17 04:54:00;;;;;;;3.3;3.2;;;;;;;0.9;100.0;98450;;;;
2023/01/17 04:55:00;;;;;;;3.1;3.0;;;;;;;0.9;100.0;98450;;;;
2023/01/17 04:56:00;;;;;;;3.1;3.0;;;;;;;0.9;100.0;98450;;;;
2023/01/17 04:57:00;;;;;;;3.1;3.0;;;;;;;0.9;100.0;98450;;;;
2023/01/17 04:58:00;;;;;;;3.1;3.0;;;;;;;0.9;100.0;98450;;;;
2023/01/17 04:59:00;;;;;;;3.1;3.0;;;;;;;0.9;100.0;98450;;;;
2023/01/17 05:00:00;;;;;;;3.1;3.0;;;;;;;0.8;100.0;98450;;;;
2023/01/17 05:01:02;;;;;;;3.1;3.0;;;;;;;0.8;100.0;98450;;;;
2023/01/17 05:02:00;;;;;;;3.1;3.0;;;;;;;0.7;100.0;98450;;;;
2023/01/17 05:03:01;;;;;;;3.1;3.0;;;;;;;0.7;100.0;98450;;;;
2023/01/17 05:04:00;;;;;;;3.1;3.0;;;;;;;0.7;100.0;98460;;;;
2023/01/17 05:05:00;;;;;;;3.1;3.0;;;;;;;0.7;100.0;98460;;;;
2023/01/17 05:06:00;;;;;;;3.1;3.0;;;;;;;0.7;100.0;98460;;;;
2023/01/17 05:07:00;;;;;;;3.1;3.0;;;;;;;0.7;100.0;98460;;;;
2023/01/17 05:08:00;;;;;;;3.1;3.0;;;;;;;0.8;100.0;98450;;;;
2023/01/17 05:09:01;;;;;;;3.1;3.0;;;;;;;0.8;100.0;98450;;;;
2023/01/17 05:10:00;;;;;;;3.1;3.0;;;;;;;0.7;100.0;98460;;;;
2023/01/17 05:11:00;;;;;;;3.1;3.0;;;;;;;0.7;100.0;98460;;;;
2023/01/17 05:12:00;;;;;;;3.1;3.0;;;;;;;0.7;100.0;98450;;;;
2023/01/17 05:13:01;;;;;;;3.1;3.0;;;;;;;0.7;100.0;98450;;;;
2023/01/17 05:14:00;;;;;;;3.1;3.0;;;;;;;0.8;100.0;98460;;;;
2023/01/17 05:15:00;;;;;;;3.4;3.3;;;;;;;0.8;100.0;98460;;;;
2023/01/17 05:16:00;;;;;;;3.4;3.3;;;;;;;0.7;100.0;98450;;;;
2023/01/17 05:17:01;;;;;;;3.4;3.3;;;;;;;0.7;100.0;98450;;;;
2023/01/17 05:18:00;;;;;;;3.4;3.3;;;;;;;0.8;100.0;98450;;;;
2023/01/17 05:19:01;;;;;;;3.4;3.3;;;;;;;0.8;100.0;98450;;;;
2023/01/17 05:20:00;;;;;;;3.4;3.3;;;;;;;0.7;100.0;98460;;;;
2023/01/17 05:21:01;;;;;;;3.4;3.3;;;;;;;0.7;100.0;98460;;;;
2023/01/17 05:22:02;;;;;;;3.4;3.3;;;;;;;0.8;100.0;98460;;;;
2023/01/17 05:23:00;;;;;;;3.4;3.3;;;;;;;0.8;100.0;98460;;;;
2023/01/17 05:24:00;;;;;;;3.4;3.3;;;;;;;0.7;100.0;98470;;;;
2023/01/17 05:25:00;;;;;;;3.4;3.3;;;;;;;0.7;100.0;98470;;;;
2023/01/17 05:26:00;;;;;;;3.4;3.3;;;;;;;0.7;100.0;98470;;;;
2023/01/17 05:27:01;;;;;;;3.4;3.3;;;;;;;0.7;100.0;98470;;;;
2023/01/17 05:28:01;;;;;;;3.4;3.3;;;;;;;0.8;100.0;98470;;;;
2023/01/17 05:29:00;;;;;;;3.4;3.3;;;;;;;0.8;100.0;98470;;;;
2023/01/17 05:30:00;;;;;;;3.4;3.3;;;;;;;0.8;100.0;98480;;;;
2023/01/17 05:31:00;;;;;;;3.4;3.3;;;;;;;0.8;100.0;98480;;;;
2023/01/17 05:32:00;;;;;;;3.4;3.3;;;;;;;0.8;100.0;98480;;;;
2023/01/17 05:33:00;;;;;;;3.4;3.3;;;;;;;0.8;100.0;98480;;;;
2023/01/17 05:34:00;;;;;;;3.4;3.3;;;;;;;0.8;100.0;98480;;;;
2023/01/17 05:35:01;;;;;;;3.0;2.9;;;;;;;0.8;100.0;98480;;;;
2023/01/17 05:36:00;;;;;;;3.0;2.9;;;;;;;0.9;100.0;98480;;;;
2023/01/17 05:37:00;;;;;;;3.0;2.9;;;;;;;0.9;100.0;98480;;;;
2023/01/17 05:38:01;;;;;;;3.0;2.9;;;;;;;1.0;100.0;98480;;;;
2023/01/17 05:39:00;;;;;;;3.0;2.9;;;;;;;1.0;100.0;98480;;;;
2023/01/17 05:40:00;;;;;;;3.0;2.9;;;;;;;0.9;100.0;98480;;;;
2023/01/17 05:41:01;;;;;;;3.0;2.9;;;;;;;0.9;100.0;98480;;;;
2023/01/17 05:42:00;;;;;;;3.0;2.9;;;;;;;1.0;100.0;98480;;;;
2023/01/17 05:43:02;;;;;;;3.0;2.9;;;;;;;1.0;100.0;98480;;;;
2023/01/17 05:44:00;;;;;;;3.0;2.9;;;;;;;0.9;100.0;98480;;;;
2023/01/17 05:45:00;;;;;;;3.0;2.9;;;;;;;0.9;100.0;98480;;;;
2023/01/17 05:46:01;;;;;;;3.0;2.9;;;;;;;1.0;100.0;98480;;;;
2023/01/17 05:47:00;;;;;;;3.0;2.9;;;;;;;1.0;100.0;98480;;;;
2023/01/17 05:48:01;;;;;;;3.0;2.9;;;;;;;1.0;100.0;98480;;;;
2023/01/17 05:49:00;;;;;;;3.0;2.9;;;;;;;1.0;100.0;98480;;;;
2023/01/17 05:50:00;;;;;;;3.0;2.9;;;;;;;1.0;100.0;98480;;;;
2023/01/17 05:51:00;;;;;;;3.0;2.9;;;;;;;1.0;100.0;98480;;;;
2023/01/17 05:52:01;;;;;;;3.0;2.9;;;;;;;1.0;100.0;98480;;;;
2023/01/17 05:53:02;;;;;;;3.0;2.9;;;;;;;1.0;100.0;98480;;;;
2023/01/17 05:54:00;;;;;;;3.3;3.2;;;;;;;0.8;100.0;98490;;;;
2023/01/17 05:55:00;;;;;;;3.3;3.2;;;;;;;0.8;100.0;98490;;;;
2023/01/17 05:56:00;;;;;;;3.3;3.2;;;;;;;0.9;100.0;98490;;;;
2023/01/17 05:57:00;;;;;;;3.3;3.2;;;;;;;0.9;100.0;98490;;;;
2023/01/17 05:58:01;;;;;;;3.3;3.2;;;;;;;0.9;100.0;98490;;;;
2023/01/17 05:59:00;;;;;;;3.3;3.2;;;;;;;0.9;100.0;98490;;;;
2023/01/17 06:00:00;;;;;;;3.3;3.2;;;;;;;0.9;100.0;98500;;;;
2023/01/17 06:01:00;;;;;;;3.3;3.2;;;;;;;0.9;100.0;98500;;;;
2023/01/17 06:02:00;;;;;;;3.3;3.2;;;;;;;1.0;100.0;98500;;;;
2023/01/17 06:03:00;;;;;;;3.3;3.2;;;;;;;1.0;100.0;98500;;;;
2023/01/17 06:04:00;;;;;;;3.3;3.2;;;;;;;0.9;100.0;98500;;;;
2023/01/17 06:05:03;;;;;;;3.3;3.2;;;;;;;0.9;100.0;98500;;;;
2023/01/17 06:06:00;;;;;;;3.3;3.2;;;;;;;1.0;100.0;98500;;;;
2023/01/17 06:07:00;;;;;;;3.3;3.2;;;;;;;1.0;100.0;98500;;;;
2023/01/17 06:08:00;;;;;;;3.3;3.2;;;;;;;0.9;100.0;98500;;;;
2023/01/17 06:09:00;;;;;;;3.3;3.2;;;;;;;0.9;100.0;98500;;;;
2023/01/17 06:10:00;;;;;;;3.3;3.2;;;;;;;0.9;100.0;98500;;;;
2023/01/17 06:11:00;;;;;;;3.3;3.2;;;;;;;0.9;100.0;98500;;;;
2023/01/17 06:12:00;;;;;;;3.3;3.2;;;;;;;0.9;100.0;98500;;;;
2023/01/17 06:13:03;;;;;;;3.3;3.2;;;;;;;0.9;100.0;98500;;;;
2023/01/17 06:14:00;;;;;;;2.9;2.8;;;;;;;0.9;100.0;98500;;;;
2023/01/17 06:15:00;;;;;;;2.9;2.8;;;;;;;0.9;100.0;98500;;;;
2023/01/17 06:16:01;;;;;;;2.9;2.8;;;;;;;0.9;100.0;98500;;;;
2023/01/17 06:17:00;;;;;;;2.9;2.8;;;;;;;0.9;100.0;98500;;;;
2023/01/17 06:18:05;;;;;;;2.9;2.8;;;;;;;1.0;100.0;98500;;;;
2023/01/17 06:19:00;;;;;;;2.9;2.8;;;;;;;1.0;100.0;98500;;;;
2023/01/17 06:20:00;;;;;;;2.9;2.8;;;;;;;0.9;100.0;98500;;;;
2023/01/17 06:21:00;;;;;;;2.9;2.8;;;;;;;0.9;100.0;98500;;;;
2023/01/17 06:22:02;;;;;;;2.9;2.8;;;;;;;0.9;100.0;98500;;;;
2023/01/17 06:23:03;;;;;;;2.9;2.8;;;;;;;0.9;100.0;98500;;;;
2023/01/17 06:24:04;;;;;;;2.9;2.8;;;;;;;0.9;100.0;98510;;;;
2023/01/17 06:25:00;;;;;;;2.9;2.8;;;;;;;0.9;100.0;98510;;;;
2023/01/17 06:26:02;;;;;;;2.9;2.8;;;;;;;0.8;100.0;98500;;;;
2023/01/17 06:27:00;;;;;;;2.9;2.8;;;;;;;0.8;100.0;98500;;;;
2023/01/17 06:28:00;;;;;;;2.9;2.8;;;;;;;0.8;100.0;98510;;;;
2023/01/17 06:29:00;;;;;;;2.9;2.8;;;;;;;0.8;100.0;98510;;;;
2023/01/17 06:30:00;;;;;;;2.9;2.8;;;;;;;0.7;100.0;98510;;;;
2023/01/17 06:31:04;;;;;;;2.9;2.8;;;;;;;0.7;100.0;98510;;;;
2023/01/17 06:32:01;;;;;;;2.9;2.8;;;;;;;0.7;100.0;98510;;;;
2023/01/17 06:33:01;;;;;;;2.9;2.8;;;;;;;0.7;100.0;98510;;;;
2023/01/17 06:34:01;;;;;;;3.6;3.5;;;;;;;0.7;100.0;98520;;;;
2023/01/17 06:35:00;;;;;;;3.6;3.5;;;;;;;0.7;100.0;98520;;;;
2023/01/17 06:36:00;;;;;;;3.6;3.5;;;;;;;0.7;100.0;98510;;;;
2023/01/17 06:37:00;;;;;;;3.6;3.5;;;;;;;0.7;100.0;98510;;;;
2023/01/17 06:38:00;;;;;;;3.6;3.5;;;;;;;0.7;100.0;98520;;;;
2023/01/17 06:39:00;;;;;;;3.6;3.5;;;;;;;0.7;100.0;98520;;;;
2023/01/17 06:40:00;;;;;;;3.6;3.5;;;;;;;0.6;100.0;98510;;;;
2023/01/17 06:41:04;;;;;;;3.6;3.5;;;;;;;0.6;100.0;98520;;;;
2023/01/17 06:42:00;;;;;;;3.6;3.5;;;;;;;0.6;100.0;98520;;;;
2023/01/17 06:43:02;;;;;;;3.6;3.5;;;;;;;0.6;100.0;98520;;;;
2023/01/17 06:44:00;;;;;;;3.6;3.5;;;;;;;0.6;100.0;98510;;;;
2023/01/17 06:45:00;;;;;;;3.6;3.5;;;;;;;0.6;100.0;98510;;;;
2023/01/17 06:46:00;;;;;;;3.6;3.5;;;;;;;0.6;100.0;98520;;;;
2023/01/17 06:47:00;;;;;;;3.6;3.5;;;;;;;0.6;100.0;98520;;;;
2023/01/17 06:48:02;;;;;;;3.6;3.5;;;;;;;0.6;100.0;98520;;;;
2023/01/17 06:49:00;;;;;;;3.6;3.5;;;;;;;0.6;100.0;98520;;;;
2023/01/17 06:50:02;;;;;;;3.6;3.5;;;;;;;0.5;100.0;98520;;;;
2023/01/17 06:51:00;;;;;;;3.6;3.5;;;;;;;0.5;100.0;98520;;;;
2023/01/17 06:52:00;;;;;;;3.6;3.5;;;;;;;0.5;100.0;98520;;;;
2023/01/17 06:53:02;;;;;;;3.6;3.5;;;;;;;0.5;100.0;98520;;;;
2023/01/17 06:54:00;;;;;;;3.2;3.1;;;;;;;0.4;100.0;98520;;;;
2023/01/17 06:55:00;;;;;;;3.2;3.1;;;;;;;0.4;100.0;98520;;;;
2023/01/17 06:56:00;;;;;;;3.2;3.1;;;;;;;0.4;100.0;98520;;;;
2023/01/17 06:57:00;;;;;;;3.2;3.1;;;;;;;0.4;100.0;98520;;;;
2023/01/17 06:58:01;;;;;;;3.2;3.1;;;;;;;0.4;100.0;98520;;;;
2023/01/17 06:59:00;;;;;;;3.2;3.1;;;;;;;0.4;100.0;98520;;;;
2023/01/17 07:00:00;;;;;;;3.2;3.1;;;;;;;0.4;100.0;98520;;;;
2023/01/17 07:01:08;;;;;;;3.2;3.1;;;;;;;0.4;100.0;98520;;;;
2023/01/17 07:02:00;;;;;;;3.2;3.1;;;;;;;0.4;100.0;98520;;;;
2023/01/17 07:03:00;;;;;;;3.2;3.1;;;;;;;0.4;100.0;98520;;;;
2023/01/17 07:04:01;;;;;;;3.2;3.1;;;;;;;0.5;100.0;98530;;;;
2023/01/17 07:05:00;;;;;;;3.2;3.1;;;;;;;0.5;100.0;98530;;;;
2023/01/17 07:06:01;;;;;;;3.2;3.1;;;;;;;0.4;100.0;98520;;;;
2023/01/17 07:07:00;;;;;;;3.2;3.1;;;;;;;0.4;100.0;98520;;;;
2023/01/17 07:08:00;;;;;;;3.2;3.1;;;;;;;0.4;100.0;98520;;;;
2023/01/17 07:09:00;;;;;;;3.2;3.1;;;;;;;0.4;100.0;98520;;;;
2023/01/17 07:10:02;;;;;;;3.2;3.1;;;;;;;0.4;100.0;98530;;;;
2023/01/17 07:11:03;;;;;;;3.2;3.1;;;;;;;0.4;100.0;98530;;;;
2023/01/17 07:12:00;;;;;;;3.2;3.1;;;;;;;0.5;100.0;98520;;;;
2023/01/17 07:13:00;;;;;;;3.2;3.1;;;;;;;0.5;100.0;98520;;;;
2023/01/17 07:14:00;;;;;;;2.9;2.8;;;;;;;0.4;100.0;98530;;;;
2023/01/17 07:15:00;;;;;;;2.9;2.8;;;;;;;0.4;100.0;98530;;;;
2023/01/17 07:16:01;;;;;;;2.9;2.8;;;;;;;0.3;100.0;98530;;;;
2023/01/17 07:17:00;;;;;;;2.9;2.8;;;;;;;0.3;100.0;98530;;;;
2023/01/17 07:18:01;;;;;;;2.9;2.8;;;;;;;0.3;100.0;98530;;;;
2023/01/17 07:19:00;;;;;;;2.9;2.8;;;;;;;0.3;100.0;98530;;;;
2023/01/17 07:20:00;;;;;;;2.9;2.8;;;;;;;0.2;100.0;98530;;;;
2023/01/17 07:21:00;;;;;;;2.9;2.8;;;;;;;0.2;100.0;98530;;;;
2023/01/17 07:22:00;;;;;;;2.9;2.8;;;;;;;0.3;100.0;98530;;;;
2023/01/17 07:23:00;;;;;;;2.9;2.8;;;;;;;0.3;100.0;98530;;;;
2023/01/17 07:24:00;;;;;;;2.9;2.8;;;;;;;0.2;100.0;98530;;;;
2023/01/17 07:25:00;;;;;;;2.9;2.8;;;;;;;0.2;100.0;98530;;;;
2023/01/17 07:26:00;;;;;;;2.9;2.8;;;;;;;0.2;100.0;98530;;;;
2023/01/17 07:27:00;;;;;;;2.9;2.8;;;;;;;0.2;100.0;98530;;;;
2023/01/17 07:28:00;;;;;;;2.9;2.8;;;;;;;0.2;100.0;98530;;;;
2023/01/17 07:29:00;;;;;;;2.9;2.8;;;;;;;0.2;100.0;98530;;;;
2023/01/17 07:30:00;;;;;;;2.9;2.8;;;;;;;0.3;100.0;98530;;;;
2023/01/17 07:31:05;;;;;;;2.9;2.8;;;;;;;0.2;100.0;98530;;;;
2023/01/17 07:32:02;;;;;;;2.9;2.8;;;;;;;0.2;100.0;98530;;;;
2023/01/17 07:33:00;;;;;;;2.9;2.8;;;;;;;0.2;100.0;98530;;;;
2023/01/17 07:34:00;;;;;;;3.4;3.3;;;;;;;0.1;100.0;98540;;;;
2023/01/17 07:35:00;;;;;;;3.4;3.3;;;;;;;0.1;100.0;98540;;;;
2023/01/17 07:36:02;;;;;;;3.4;3.3;;;;;;;0.2;100.0;98550;;;;
2023/01/17 07:37:00;;;;;;;3.4;3.3;;;;;;;0.2;100.0;98550;;;;
2023/01/17 07:38:00;;;;;;;3.4;3.3;;;;;;;0.1;100.0;98540;;;;
2023/01/17 07:39:00;;;;;;;3.4;3.3;;;;;;;0.1;100.0;98540;;;;
2023/01/17 07:40:01;;;;;;;3.4;3.3;;;;;;;0.1;100.0;98550;;;;
2023/01/17 07:41:00;;;;;;;3.4;3.3;;;;;;;0.1;100.0;98550;;;;
2023/01/17 07:42:00;;;;;;;3.4;3.3;;;;;;;0.1;100.0;98550;;;;
2023/01/17 07:43:00;;;;;;;3.4;3.3;;;;;;;0.1;100.0;98550;;;;
2023/01/17 07:44:00;;;;;;;3.4;3.3;;;;;;;0.1;100.0;98550;;;;
2023/01/17 07:45:01;;;;;;;3.4;3.3;;;;;;;0.1;100.0;98550;;;;
2023/01/17 07:46:02;;;;;;;3.4;3.3;;;;;;;0.1;100.0;98550;;;;
2023/01/17 07:47:00;;;;;;;3.4;3.3;;;;;;;0.1;100.0;98550;;;;
2023/01/17 07:48:00;;;;;;;3.4;3.3;;;;;;;0.1;100.0;98550;;;;
2023/01/17 07:49:00;;;;;;;3.4;3.3;;;;;;;0.1;100.0;98550;;;;
2023/01/17 07:50:01;;;;;;;3.4;3.3;;;;;;;0.1;100.0;98550;;;;
2023/01/17 07:51:00;;;;;;;3.4;3.3;;;;;;;0.1;100.0;98550;;;;
2023/01/17 07:52:00;;;;;;;3.4;3.3;;;;;;;0.1;100.0;98550;;;;
2023/01/17 07:53:00;;;;;;;3.4;3.3;;;;;;;0.1;100.0;98550;;;;
2023/01/17 07:54:00;;;;;;;3.4;3.3;;;;;;;0.2;100.0;98560;;;;
2023/01/17 07:55:00;;;;;;;3.4;3.3;;;;;;;0.2;100.0;98560;;;;